May 17, 2022

Time Code Weather Temp. Visibility Clouds Wind METAR/SPECI
9:55 am
V
64 °F 6¼ mi+ - 250°   250° 7 kt METAR EHLW 170755Z AUTO 25007KT 230V320 9999 SCT380 18/13 Q1020 BLU NOSIG
9:25 am
V
63 °F 6¼ mi+ 31,000 ft 260°   260° 9 kt METAR EHLW 170725Z AUTO 26009KT 210V270 9999 OVC310 17/13 Q1020 BLU NOSIG
8:55 am
V
61 °F 6¼ mi+ 15,000 ft 260°   260° 10 kt METAR EHLW 170655Z AUTO 26010KT 9999 OVC150 16/13 Q1020 BLU NOSIG
8:25 am
V
61 °F 6¼ mi+ 15,000 ft 250°   250° 9 kt METAR EHLW 170625Z AUTO 25009KT 220V290 9999 OVC150 16/13 Q1019 BLU NOSIG
7:55 am
V
59 °F 6¼ mi+ 16,000 ft 240°   240° 7 kt METAR EHLW 170555Z AUTO 24007KT 9999 OVC160 15/13 Q1019 BLU NOSIG
7:25 am
V
59 °F 6¼ mi+ 16,000 ft 240°   240° 6 kt METAR EHLW 170525Z AUTO 24006KT 9999 OVC160 15/13 Q1019 BLU
6:55 am
V
55 °F 6¼ mi+ 16,000 ft 230°   230° 6 kt METAR EHLW 170455Z AUTO 23006KT 9999 OVC160 13/12 Q1019 BLU
6:25 am
V
54 °F 6¼ mi+ 17,000 ft 220°   220° 6 kt METAR EHLW 170425Z AUTO 22006KT 9999 OVC170 12/11 Q1018 BLU
5:55 am
V
52 °F 6¼ mi+ 16,000 ft 220°   220° 6 kt METAR EHLW 170355Z AUTO 22006KT 9999 OVC160 11/11 Q1018 BLU
5:25 am
V
52 °F 6¼ mi+ 17,000 ft 220°   220° 7 kt METAR EHLW 170325Z AUTO 22007KT 9999 FEW036 BKN170 OVC320 11/10 Q1018 BLU
4:55 am
V
52 °F 6¼ mi+ - 210°   210° 5 kt METAR EHLW 170255Z AUTO 21005KT 9999 FEW340 11/11 Q1018 BLU
4:25 am
V
54 °F 6¼ mi+ 26,000 ft 210°   210° 6 kt METAR EHLW 170225Z AUTO 21006KT 9999 OVC260 12/11 Q1018 BLU
3:55 am
V
55 °F 5⅝ mi - 210°   210° 5 kt METAR EHLW 170155Z AUTO 21005KT 170V230 9000 BR FEW260 13/12 Q1018 BLU
3:25 am
V
55 °F 6¼ mi+ - 210°   210° 7 kt METAR EHLW 170125Z AUTO 21007KT 9999 SCT260 13/12 Q1018 BLU
2:55 am
V
55 °F 6¼ mi+ - 210°   210° 7 kt METAR EHLW 170055Z AUTO 21007KT 9999 SCT042 SCT260 13/11 Q1018 BLU
2:25 am
V
55 °F 6¼ mi+ - 220°   220° 7 kt METAR EHLW 170025Z AUTO 22007KT 9999 NCD 13/12 Q1018 BLU RMK CB INFO NOT AVBL
1:55 am
V
55 °F 6¼ mi+ 27,000 ft 210°   210° 6 kt METAR EHLW 162355Z AUTO 21006KT 9999 OVC270 13/11 Q1018 BLU
1:25 am
V
55 °F 6¼ mi+ - 210°   210° 5 kt METAR EHLW 162325Z AUTO 21005KT 9999 NCD 13/12 Q1018 BLU
12:55 am
V
55 °F 6¼ mi+ - 210°   210° 5 kt METAR EHLW 162255Z AUTO 21005KT 9999 SCT290 13/12 Q1018 BLU
12:25 am
V
55 °F 5⅝ mi - 220°   220° 5 kt METAR EHLW 162225Z AUTO 22005KT 9000 BR NCD 13/12 Q1018 BLU

May 16, 2022

Time Code Weather Temp. Visibility Clouds Wind METAR/SPECI
11:55 pm
V
57 °F 6¼ mi+ - 230°   230° 7 kt METAR EHLW 162155Z AUTO 23007KT 9999 NCD 14/12 Q1018 BLU
11:25 pm
V
59 °F 6¼ mi+ - 240°   240° 8 kt METAR EHLW 162125Z AUTO 24008KT 200V260 9999 NCD 15/13 Q1017 BLU
10:55 pm
V
59 °F 6¼ mi+ 3,900 ft 230°   230° 7 kt METAR EHLW 162055Z AUTO 23007KT 9999 OVC039 15/13 Q1017 BLU
10:25 pm
V
61 °F 6¼ mi+ 4,600 ft 230°   230° 9 kt METAR EHLW 162025Z AUTO 23009KT 200V260 9999 FEW037 OVC046 16/13 Q1017 BLU
10:02 pm
V
61 °F 6¼ mi+ 3,500 ft 230°   230° 9 kt METAR EHLW 162002Z AUTO 23009KT 200V260 9999 FEW019 BKN035 OVC046 16/13 Q1017 BLU
9:55 pm
V
61 °F 6¼ mi+ 3,500 ft 240°   240° 10 kt METAR EHLW 161955Z AUTO 24010KT 200V260 9999 SCT019 BKN035 OVC046 16/13 Q1017 WHT
9:27 pm
V
61 °F 6¼ mi+ 4,400 ft 230°   230° 9 kt METAR EHLW 161927Z AUTO 23009KT 9999 FEW023 SCT035 OVC044 16/13 Q1017 BLU
9:25 pm
M
61 °F 6¼ mi+ 2,300 ft 230°   230° 10 kt METAR EHLW 161925Z AUTO 23010KT 200V260 9999 BKN023 OVC044 16/13 Q1017 WHT
9:18 pm
M
61 °F 6¼ mi+ 2,400 ft 240°   240° 11 kt METAR EHLW 161918Z AUTO 24011KT 200V270 9999 OVC024 16/13 Q1017 WHT
9:11 pm
M
61 °F 6¼ mi+ 2,500 ft 230°   230° 10 kt METAR EHLW 161911Z AUTO 23010KT 200V270 9999 OVC025 16/13 Q1017 BLU
8:55 pm
M
61 °F 6¼ mi+ 2,400 ft 240°   240° 11 kt METAR EHLW 161855Z AUTO 24011KT 200V260 9999 FEW011 OVC024 16/13 Q1016 WHT
8:25 pm
M
61 °F 6¼ mi+ 1,300 ft 250°   250° 12 kt METAR EHLW 161825Z AUTO 25012KT 9999 BKN013 OVC015 16/13 Q1016 GRN
8:04 pm
M
63 °F 6¼ mi+ 1,400 ft 240°   240° 12 kt METAR EHLW 161804Z AUTO 24012KT 220V280 9999 OVC014 17/14 Q1016 GRN
8:00 pm
M
63 °F 6¼ mi+ 1,500 ft 240°   240° 12 kt METAR EHLW 161800Z AUTO 24012KT 220V280 9999 OVC015 17/14 Q1016 WHT
7:55 pm
M
63 °F 6¼ mi+ 1,500 ft 250°   250° 12 kt METAR EHLW 161755Z AUTO 25012KT 210V280 9999 OVC015 17/14 Q1016 WHT
7:25 pm
M
63 °F 6¼ mi+ 1,500 ft 230°   230° 12 kt METAR EHLW 161725Z AUTO 23012KT 200V260 9999 OVC015 17/14 Q1016 WHT
6:55 pm
M
63 °F 6¼ mi+ 1,700 ft 240°   240° 10 kt METAR EHLW 161655Z AUTO 24010KT 200V260 9999 OVC017 17/14 Q1015 WHT
6:39 pm
M
63 °F 6¼ mi+ 1,600 ft 230°   230° 12 kt METAR EHLW 161639Z AUTO 23012KT 9999 FEW014 OVC016 17/14 Q1016 WHT
6:25 pm
M
63 °F 6¼ mi+ 1,600 ft 230°   230° 13 kt METAR EHLW 161625Z AUTO 23013KT 200V260 9999 SCT013 OVC016 17/14 Q1016 GRN
5:55 pm
M
64 °F 6¼ mi+ 1,400 ft 240°   240° 16 kt METAR EHLW 161555Z AUTO 24016KT 200V260 9999 -RA BKN014 OVC017 18/14 Q1015 GRN
5:41 pm
V
64 °F 6¼ mi+ 9,300 ft 240°   240° 14 kt METAR EHLW 161541Z AUTO 24014KT 210V270 9999 SCT015 SCT087 BKN093 18/14 Q1015 WHT
5:25 pm
M
66 °F 6¼ mi+ 1,600 ft 240°   240° 12 kt METAR EHLW 161525Z AUTO 24012KT 200V260 9999 BKN016 BKN020 BKN034 19/15 Q1015 WHT
4:56 pm
M
70 °F 6¼ mi+ 1,900 ft 240°   240° 11 kt METAR EHLW 161456Z AUTO 24011KT 200V270 9999 BKN019 OVC100 21/16 Q1015 WHT
4:55 pm
V
70 °F 6¼ mi+ 10,000 ft 240°   240° 12 kt METAR EHLW 161455Z AUTO 24012KT 210V270 9999 FEW019 SCT040 BKN100 21/15 Q1015 BLU
4:25 pm
V
68 °F 6¼ mi+ 9,200 ft 250°   250° 13 kt METAR EHLW 161425Z AUTO 25013KT 210V280 9999 BKN092 BKN097 OVC100 20/15 Q1015 BLU
3:57 pm
V
70 °F 6¼ mi+ 17,000 ft 260°   260° 13 kt METAR EHLW 161357Z AUTO 26013KT 230V290 9999 OVC170 21/15 Q1015 BLU
3:55 pm
V
68 °F 6¼ mi+ 17,000 ft 260°   260° 14 kt METAR EHLW 161355Z AUTO 26014KT 230V290 9999 OVC170 20/14 Q1014 BLU NOSIG
3:25 pm
V
72 °F 6¼ mi+ 12,000 ft 250°   250° 13 kt METAR EHLW 161325Z AUTO 25013KT 220V290 9999 BKN120 OVC190 22/14 Q1014 BLU NOSIG
2:55 pm
V
73 °F 6¼ mi+ 10,000 ft 220°   220° 10 kt METAR EHLW 161255Z AUTO 22010KT 170V250 9999 OVC100 23/12 Q1014 BLU NOSIG
2:25 pm
V
73 °F 6¼ mi+ 11,000 ft 190°   190° 9 kt METAR EHLW 161225Z AUTO 19009KT 150V230 9999 OVC110 23/13 Q1014 BLU BECMG 24011KT
1:55 pm
V
72 °F 6¼ mi+ 10,000 ft 170°   170° 9 kt METAR EHLW 161155Z AUTO 17009KT 120V230 9999 OVC100 22/11 Q1014 BLU BECMG 24011KT
1:25 pm
V
73 °F 6¼ mi+ 11,000 ft 160°   160° 8 kt METAR EHLW 161125Z AUTO 16008KT 100V200 9999 OVC110 23/12 Q1014 BLU BECMG 24011KT
12:55 pm
V
72 °F 6¼ mi+ 11,000 ft 160°   160° 8 kt METAR EHLW 161055Z AUTO 16008KT 100V180 9999 OVC110 22/12 Q1014 BLU BECMG 24011KT
12:25 pm
V
70 °F 6¼ mi+ 9,800 ft 140°   140° 8 kt METAR EHLW 161025Z AUTO 14008KT 070V170 9999 SCT092 BKN098 OVC100 21/11 Q1013 BLU BECMG 24011KT
11:55 am
V
70 °F 6¼ mi+ 11,000 ft 140°   140° 11 kt METAR EHLW 160955Z AUTO 14011KT 080V170 9999 OVC110 21/10 Q1013 BLU BECMG 24011KT
11:42 am
V
72 °F 6¼ mi+ 11,000 ft 140°   140° 9 kt METAR EHLW 160942Z AUTO 14009KT 100V170 9999 OVC110 22/11 Q1013 BLU BECMG 24011KT
11:27 am
V
72 °F 6¼ mi+ 16,000 ft 130°   130° 9 kt METAR EHLW 160927Z AUTO 13009KT 060V170 9999 OVC160 22/11 Q1013 BLU BECMG 24011KT
11:25 am
V
72 °F 6¼ mi+ 16,000 ft 120°   120° 8 kt METAR EHLW 160925Z AUTO 12008KT 060V170 9999 OVC160 22/12 Q1013 BLU NOSIG
11:10 am
V
70 °F 6¼ mi+ 16,000 ft 120°   120° 10 kt METAR EHLW 160910Z AUTO 12010KT 070V160 9999 OVC160 21/10 Q1013 BLU NOSIG
10:55 am
V
68 °F 6¼ mi+ 16,000 ft 120°   120° 9 kt METAR EHLW 160855Z AUTO 12009KT 070V160 9999 OVC160 20/10 Q1013 BLU BECMG 15008KT
10:25 am
V
66 °F 6¼ mi+ 22,000 ft 110°   110° 10 kt METAR EHLW 160825Z AUTO 11010KT 050V200 9999 SCT170 OVC220 19/10 Q1013 BLU BECMG 15008KT
9:55 am
V
66 °F 6¼ mi+ 27,000 ft 110°   110° 8 kt METAR EHLW 160755Z AUTO 11008KT 020V170 9999 OVC270 19/10 Q1013 BLU NOSIG
9:25 am
V
64 °F 6¼ mi+ 33,000 ft Var   Var 10 kt METAR EHLW 160725Z AUTO VRB10KT 9999 SCT190 OVC330 18/09 Q1013 BLU NOSIG
8:55 am
V
61 °F 6¼ mi+ 17,000 ft 100°   100° 11 kt METAR EHLW 160655Z AUTO 10011KT 030V200 9999 OVC170 16/09 Q1013 BLU NOSIG
8:25 am
V
59 °F 6¼ mi+ 18,000 ft Var   Var 13 kt METAR EHLW 160625Z AUTO VRB13KT 9999 OVC180 15/08 Q1013 BLU NOSIG
7:58 am
V
57 °F 6¼ mi+ 17,000 ft Var   Var 11 kt METAR EHLW 160558Z AUTO VRB11KT 9999 OVC170 14/08 Q1013 BLU NOSIG
7:55 am
V
57 °F 6¼ mi+ 17,000 ft 100°   100° 12 kt METAR EHLW 160555Z AUTO 10012KT 020V190 9999 OVC170 14/08 Q1013 BLU
7:25 am
V
57 °F 6¼ mi+ 16,000 ft 110°   110° 11 kt METAR EHLW 160525Z AUTO 11011KT 050V170 9999 OVC160 14/08 Q1014 BLU
6:55 am
V
55 °F 6¼ mi+ 17,000 ft 100°   100° 11 kt METAR EHLW 160455Z AUTO 10011KT 010V180 9999 OVC170 13/08 Q1014 BLU
6:25 am
V
55 °F 6¼ mi+ 27,000 ft Var   Var 10 kt METAR EHLW 160425Z AUTO VRB10KT 9999 SCT180 OVC270 13/08 Q1014 BLU
5:55 am
V
55 °F 6¼ mi+ 33,000 ft Var   Var 9 kt METAR EHLW 160355Z AUTO VRB09KT 9999 OVC330 13/08 Q1014 BLU
5:25 am
V
55 °F 6¼ mi+ 19,000 ft Var   Var 11 kt METAR EHLW 160325Z AUTO VRB11KT 9999 OVC190 13/08 Q1014 BLU
4:55 am
V
55 °F 6¼ mi+ - Var   Var 9 kt METAR EHLW 160255Z AUTO VRB09KT 9999 SCT310 13/08 Q1014 BLU
4:25 am
V
54 °F 6¼ mi+ 19,000 ft Var   Var 10 kt METAR EHLW 160225Z AUTO VRB10KT 9999 BKN190 OVC310 12/09 Q1015 BLU
3:55 am
V
54 °F 6¼ mi+ 19,000 ft Var   Var 9 kt METAR EHLW 160155Z AUTO VRB09KT 9999 OVC190 12/09 Q1015 BLU
3:25 am
V
54 °F 6¼ mi+ 32,000 ft 070°   070° 9 kt METAR EHLW 160125Z AUTO 07009KT 360V120 9999 FEW190 OVC320 12/09 Q1015 BLU
2:55 am
V
54 °F 6¼ mi+ 18,000 ft 070°   070° 10 kt METAR EHLW 160055Z AUTO 07010KT 340V150 9999 OVC180 12/09 Q1016 BLU
2:25 am
V
52 °F 6¼ mi+ 34,000 ft Var   Var 9 kt METAR EHLW 160025Z AUTO VRB09KT 9999 OVC340 11/09 Q1016 BLU
1:55 am
V
52 °F 6¼ mi+ - 070°   070° 9 kt METAR EHLW 152355Z AUTO 07009KT 340V150 9999 FEW360 11/09 Q1016 BLU
1:25 am
V
54 °F 6¼ mi+ 35,000 ft 070°   070° 9 kt METAR EHLW 152325Z AUTO 07009KT 350V140 9999 BKN350 12/09 Q1017 BLU
12:55 am
V
54 °F 6¼ mi+ 18,000 ft 070°   070° 9 kt METAR EHLW 152255Z AUTO 07009KT 360V160 9999 OVC180 12/09 Q1017 BLU
12:25 am
V
54 °F 6¼ mi+ - 080°   080° 10 kt METAR EHLW 152225Z AUTO 08010KT 360V140 9999 SCT180 12/09 Q1017 BLU

May 15, 2022

Time Code Weather Temp. Visibility Clouds Wind METAR/SPECI
11:55 pm
V
54 °F 6¼ mi+ 36,000 ft Var   Var 10 kt METAR EHLW 152155Z AUTO VRB10KT 9999 FEW180 SCT250 BKN360 12/09 Q1017 BLU
11:25 pm
V
55 °F 6¼ mi+ 17,000 ft 070°   070° 11 kt METAR EHLW 152125Z AUTO 07011KT 330V140 9999 OVC170 13/10 Q1017 BLU
10:55 pm
V
55 °F 6¼ mi+ 17,000 ft 070°   070° 11 kt METAR EHLW 152055Z AUTO 07011KT 340V130 9999 OVC170 13/10 Q1017 BLU
10:25 pm
V
55 °F 6¼ mi+ 22,000 ft Var   Var 10 kt METAR EHLW 152025Z AUTO VRB10KT 9999 BKN220 13/10 Q1017 BLU
9:55 pm
V
55 °F 6¼ mi+ - 060°   060° 12 kt METAR EHLW 151955Z AUTO 06012KT 340V120 9999 NCD 13/11 Q1017 BLU
9:25 pm
V
57 °F 6¼ mi+ - 060°   060° 11 kt METAR EHLW 151925Z AUTO 06011KT 340V110 9999 NCD 14/11 Q1017 BLU
8:55 pm
V
57 °F 6¼ mi+ - 060°   060° 12 kt METAR EHLW 151855Z AUTO 06012KT 340V130 9999 NCD 14/11 Q1017 BLU
8:25 pm
V
59 °F 6¼ mi+ 20,000 ft 060°   060° 12 kt METAR EHLW 151825Z AUTO 06012KT 360V120 9999 OVC200 15/11 Q1017 BLU
7:55 pm
V
59 °F 6¼ mi+ - 060°   060° 14 kt METAR EHLW 151755Z AUTO 06014KT 360V130 9999 SCT210 15/11 Q1017 BLU
7:25 pm
V
61 °F 6¼ mi+ 21,000 ft 060°   060° 14 kt METAR EHLW 151725Z AUTO 06014KT 350V130 9999 OVC210 16/11 Q1018 BLU
6:55 pm
V
61 °F 6¼ mi+ 14,000 ft 060°   060° 13 kt METAR EHLW 151655Z AUTO 06013KT 340V130 9999 OVC140 16/10 Q1018 BLU
6:25 pm
V
63 °F 6¼ mi+ 16,000 ft 050°   050° 15 kt METAR EHLW 151625Z AUTO 05015KT 010V090 9999 OVC160 17/11 Q1018 BLU
5:55 pm
V
64 °F 6¼ mi+ - 050°   050° 16 kt METAR EHLW 151555Z AUTO 05016KT 330V090 9999 NCD 18/11 Q1018 BLU
5:25 pm
V
64 °F 6¼ mi+ 35,000 ft 050°   050° 15 kt METAR EHLW 151525Z AUTO 05015KT 350V120 9999 OVC350 18/11 Q1019 BLU
4:55 pm
V
66 °F 6¼ mi+ 35,000 ft 060°   060° 15 kt METAR EHLW 151455Z AUTO 06015KT 350V120 9999 BKN350 19/11 Q1019 BLU
4:25 pm
V
66 °F 6¼ mi+ 29,000 ft 060°   060° 15 kt METAR EHLW 151425Z AUTO 06015KT 360V110 9999 OVC290 19/11 Q1019 BLU
3:55 pm
V
66 °F 6¼ mi+ 28,000 ft Var   Var 15 kt METAR EHLW 151355Z AUTO VRB15KT 9999 OVC280 19/11 Q1019 BLU
3:25 pm
V
68 °F 6¼ mi+ 24,000 ft 060°   060° 12 kt METAR EHLW 151325Z AUTO 06012KT 350V120 9999 OVC240 20/11 Q1020 BLU
2:55 pm
V
68 °F 6¼ mi+ - 060°   060° 10 kt METAR EHLW 151255Z AUTO 06010KT 350V140 9999 FEW320 20/10 Q1020 BLU
2:25 pm
V
68 °F 6¼ mi+ - Var   Var 9 kt METAR EHLW 151225Z AUTO VRB09KT 9999 NCD 20/08 Q1020 BLU
1:55 pm
V
68 °F 6¼ mi+ 26,000 ft Var   Var 9 kt METAR EHLW 151155Z AUTO VRB09KT 9999 OVC260 20/09 Q1020 BLU
1:25 pm
V
66 °F 6¼ mi+ - Var   Var 8 21 kt METAR EHLW 151125Z AUTO VRB08G21KT 9999 SCT290 19/08 Q1021 BLU
12:55 pm
V
66 °F 6¼ mi+ 33,000 ft Var   Var 8 kt METAR EHLW 151055Z AUTO VRB08KT 9999 BKN330 19/09 Q1021 BLU
12:25 pm
V
66 °F 6¼ mi+ - Var   Var 9 kt METAR EHLW 151025Z AUTO VRB09KT 9999 SCT340 19/09 Q1021 BLU
11:55 am
V
64 °F 6¼ mi+ - Var   Var 7 kt METAR EHLW 150955Z AUTO VRB07KT 9999 NCD 18/09 Q1021 BLU
11:25 am
V
64 °F 6¼ mi+ - 090°   090° 6 kt METAR EHLW 150925Z AUTO 09006KT 020V170 9999 NCD 18/08 Q1022 BLU
10:55 am
V
63 °F 6¼ mi+ 27,000 ft Var   Var 7 kt METAR EHLW 150855Z AUTO VRB07KT 9999 BKN270 17/09 Q1021 BLU
10:25 am
V
63 °F 6¼ mi+ - Var   Var 6 kt METAR EHLW 150825Z AUTO VRB06KT 9999 NCD 17/09 Q1022 BLU
9:55 am
V
61 °F 6¼ mi+ - Var   Var 7 kt METAR EHLW 150755Z AUTO VRB07KT 9999 NCD 16/09 Q1021 BLU
9:25 am
V
59 °F 6¼ mi+ - 090°   090° 7 kt METAR EHLW 150725Z AUTO 09007KT 350V160 9999 NCD 15/09 Q1022 BLU
Older data

Download our app

Easy access to all aviation weather on your mobile phone and tablet.
With many features not available on the website, like offline support and a personal airport list.